sensor_id;sensor_type;location;lat;lon;timestamp;pressure;altitude;pressure_sealevel;temperature;humidity
68230;BME280;55048;52.220;5.160;2022-10-31T00:01:24;101894.66;;;13.86;78.30
68230;BME280;55048;52.220;5.160;2022-10-31T00:03:50;101875.59;;;13.71;78.12
68230;BME280;55048;52.220;5.160;2022-10-31T00:06:16;101974.44;;;14.36;78.43
68230;BME280;55048;52.220;5.160;2022-10-31T00:08:56;101970.91;;;14.36;78.64
68230;BME280;55048;52.220;5.160;2022-10-31T00:11:22;101904.16;;;13.94;78.23
68230;BME280;55048;52.220;5.160;2022-10-31T00:13:47;101953.59;;;14.26;78.22
68230;BME280;55048;52.220;5.160;2022-10-31T00:16:21;101977.91;;;14.37;78.17
68230;BME280;55048;52.220;5.160;2022-10-31T00:18:48;101947.56;;;14.19;78.11
68230;BME280;55048;52.220;5.160;2022-10-31T00:21:15;101979.78;;;14.36;78.24
68230;BME280;55048;52.220;5.160;2022-10-31T00:23:41;101927.69;;;14.03;78.25
68230;BME280;55048;52.220;5.160;2022-10-31T00:26:06;101873.56;;;13.55;78.15
68230;BME280;55048;52.220;5.160;2022-10-31T00:28:32;101940.13;;;14.10;78.19
68230;BME280;55048;52.220;5.160;2022-10-31T00:30:59;101932.44;;;14.01;78.32
68230;BME280;55048;52.220;5.160;2022-10-31T00:33:25;101674.78;;;12.32;78.02
68230;BME280;55048;52.220;5.160;2022-10-31T00:35:50;101922.88;;;13.94;78.33
68230;BME280;55048;52.220;5.160;2022-10-31T00:38:16;101985.00;;;14.31;78.18
68230;BME280;55048;52.220;5.160;2022-10-31T00:40:41;101868.22;;;13.55;78.56
68230;BME280;55048;52.220;5.160;2022-10-31T00:43:06;101931.75;;;13.94;78.24
68230;BME280;55048;52.220;5.160;2022-10-31T00:45:32;101858.91;;;13.45;78.29
68230;BME280;55048;52.220;5.160;2022-10-31T00:47:57;101919.97;;;13.84;78.27
68230;BME280;55048;52.220;5.160;2022-10-31T00:50:23;101838.44;;;13.27;78.48
68230;BME280;55048;52.220;5.160;2022-10-31T00:52:48;101993.03;;;14.19;78.41
68230;BME280;55048;52.220;5.160;2022-10-31T00:55:13;101825.97;;;13.21;78.43
68230;BME280;55048;52.220;5.160;2022-10-31T00:57:39;101953.72;;;13.96;78.41
68230;BME280;55048;52.220;5.160;2022-10-31T01:00:05;101984.09;;;14.14;78.32
68230;BME280;55048;52.220;5.160;2022-10-31T01:02:31;101894.16;;;13.54;78.53
68230;BME280;55048;52.220;5.160;2022-10-31T01:04:56;101911.13;;;13.60;78.17
68230;BME280;55048;52.220;5.160;2022-10-31T01:07:22;101869.25;;;13.30;78.32
68230;BME280;55048;52.220;5.160;2022-10-31T01:09:47;101891.91;;;13.39;78.33
68230;BME280;55048;52.220;5.160;2022-10-31T01:12:12;101983.94;;;13.97;78.72
68230;BME280;55048;52.220;5.160;2022-10-31T01:14:43;101981.16;;;13.92;78.90
68230;BME280;55048;52.220;5.160;2022-10-31T01:17:10;101925.03;;;13.50;78.87
68230;BME280;55048;52.220;5.160;2022-10-31T01:19:35;101934.91;;;13.49;79.00
68230;BME280;55048;52.220;5.160;2022-10-31T01:22:00;101942.75;;;13.63;78.99
68230;BME280;55048;52.220;5.160;2022-10-31T01:24:28;101935.03;;;13.55;79.26
68230;BME280;55048;52.220;5.160;2022-10-31T01:26:53;101937.16;;;13.64;79.16
68230;BME280;55048;52.220;5.160;2022-10-31T01:29:19;101818.22;;;12.90;79.05
68230;BME280;55048;52.220;5.160;2022-10-31T01:31:44;101850.34;;;13.13;78.88
68230;BME280;55048;52.220;5.160;2022-10-31T01:34:15;101929.13;;;13.64;79.01
68230;BME280;55048;52.220;5.160;2022-10-31T01:36:41;101915.41;;;13.49;78.89
68230;BME280;55048;52.220;5.160;2022-10-31T01:39:11;101917.03;;;13.50;78.80
68230;BME280;55048;52.220;5.160;2022-10-31T01:41:39;101963.69;;;13.77;78.68
68230;BME280;55048;52.220;5.160;2022-10-31T01:47:11;101950.44;;;13.71;78.72
68230;BME280;55048;52.220;5.160;2022-10-31T01:49:43;101923.19;;;13.50;78.63
68230;BME280;55048;52.220;5.160;2022-10-31T01:54:41;101954.00;;;13.65;78.48
68230;BME280;55048;52.220;5.160;2022-10-31T01:57:10;101778.53;;;12.51;78.70
68230;BME280;55048;52.220;5.160;2022-10-31T01:59:43;101953.31;;;13.58;78.92
68230;BME280;55048;52.220;5.160;2022-10-31T02:02:13;101944.25;;;13.28;78.86
68230;BME280;55048;52.220;5.160;2022-10-31T02:04:40;101909.19;;;13.25;78.82
68230;BME280;55048;52.220;5.160;2022-10-31T02:07:13;101815.44;;;12.55;78.92
68230;BME280;55048;52.220;5.160;2022-10-31T02:09:40;101940.94;;;13.45;78.82
68230;BME280;55048;52.220;5.160;2022-10-31T02:12:06;101852.38;;;12.88;78.60
68230;BME280;55048;52.220;5.160;2022-10-31T02:14:35;101884.00;;;13.02;78.85
68230;BME280;55048;52.220;5.160;2022-10-31T02:17:02;101839.63;;;12.71;78.56
68230;BME280;55048;52.220;5.160;2022-10-31T02:19:41;101938.47;;;13.32;78.50
68230;BME280;55048;52.220;5.160;2022-10-31T02:24:52;101842.16;;;12.66;78.50
68230;BME280;55048;52.220;5.160;2022-10-31T02:28:06;101936.09;;;13.23;78.56
68230;BME280;55048;52.220;5.160;2022-10-31T02:36:26;101948.44;;;13.24;78.55
68230;BME280;55048;52.220;5.160;2022-10-31T02:39:11;101944.34;;;13.22;78.62
68230;BME280;55048;52.220;5.160;2022-10-31T02:42:09;101943.97;;;13.18;78.66
68230;BME280;55048;52.220;5.160;2022-10-31T02:47:14;101897.53;;;12.89;78.75
68230;BME280;55048;52.220;5.160;2022-10-31T02:52:29;101934.72;;;13.02;78.75
68230;BME280;55048;52.220;5.160;2022-10-31T02:57:48;101926.06;;;12.89;78.76
68230;BME280;55048;52.220;5.160;2022-10-31T03:00:14;101866.59;;;12.51;78.51
68230;BME280;55048;52.220;5.160;2022-10-31T03:03:00;101950.75;;;13.02;79.02
68230;BME280;55048;52.220;5.160;2022-10-31T03:06:09;101949.34;;;13.00;78.97
68230;BME280;55048;52.220;5.160;2022-10-31T03:08:59;101944.22;;;12.98;78.86
68230;BME280;55048;52.220;5.160;2022-10-31T03:16:42;101946.75;;;12.93;78.82
68230;BME280;55048;52.220;5.160;2022-10-31T03:19:15;101946.38;;;12.90;78.74
68230;BME280;55048;52.220;5.160;2022-10-31T03:24:38;101953.00;;;12.87;78.77
68230;BME280;55048;52.220;5.160;2022-10-31T03:27:07;101948.09;;;12.84;78.95
68230;BME280;55048;52.220;5.160;2022-10-31T03:29:36;101941.22;;;12.76;79.06
68230;BME280;55048;52.220;5.160;2022-10-31T03:32:19;101931.19;;;12.72;78.98
68230;BME280;55048;52.220;5.160;2022-10-31T03:34:46;101948.78;;;12.80;79.15
68230;BME280;55048;52.220;5.160;2022-10-31T03:37:18;101947.34;;;12.77;79.10
68230;BME280;55048;52.220;5.160;2022-10-31T03:39:46;101925.81;;;12.60;79.34
68230;BME280;55048;52.220;5.160;2022-10-31T03:42:25;101925.06;;;12.53;79.30
68230;BME280;55048;52.220;5.160;2022-10-31T03:44:56;101939.16;;;12.60;79.35
68230;BME280;55048;52.220;5.160;2022-10-31T03:47:23;101958.50;;;12.74;79.40
68230;BME280;55048;52.220;5.160;2022-10-31T03:49:49;101941.72;;;12.67;79.43
68230;BME280;55048;52.220;5.160;2022-10-31T03:52:35;101959.97;;;12.70;80.08
68230;BME280;55048;52.220;5.160;2022-10-31T03:55:19;101913.94;;;12.38;79.53
68230;BME280;55048;52.220;5.160;2022-10-31T04:00:17;101962.88;;;12.68;79.91
68230;BME280;55048;52.220;5.160;2022-10-31T04:03:10;101964.72;;;12.68;79.79
68230;BME280;55048;52.220;5.160;2022-10-31T04:05:36;101962.88;;;12.68;79.95
68230;BME280;55048;52.220;5.160;2022-10-31T04:08:05;101960.66;;;12.65;79.92
68230;BME280;55048;52.220;5.160;2022-10-31T04:10:34;101962.50;;;12.65;79.81
68230;BME280;55048;52.220;5.160;2022-10-31T04:13:05;101936.63;;;12.47;80.17
68230;BME280;55048;52.220;5.160;2022-10-31T04:15:39;101951.69;;;12.60;79.87
68230;BME280;55048;52.220;5.160;2022-10-31T04:18:06;101947.00;;;12.55;79.91
68230;BME280;55048;52.220;5.160;2022-10-31T04:20:33;101957.03;;;12.60;80.07
68230;BME280;55048;52.220;5.160;2022-10-31T04:22:59;101928.63;;;12.47;79.98
68230;BME280;55048;52.220;5.160;2022-10-31T04:25:25;101950.03;;;12.59;79.91
68230;BME280;55048;52.220;5.160;2022-10-31T04:27:53;101931.06;;;12.48;79.98
68230;BME280;55048;52.220;5.160;2022-10-31T04:30:18;101948.88;;;12.55;79.96
68230;BME280;55048;52.220;5.160;2022-10-31T04:32:43;101923.38;;;12.40;79.84
68230;BME280;55048;52.220;5.160;2022-10-31T04:35:09;101902.38;;;12.25;79.98
68230;BME280;55048;52.220;5.160;2022-10-31T04:37:36;101930.31;;;12.41;79.89
68230;BME280;55048;52.220;5.160;2022-10-31T04:40:03;101945.06;;;12.44;80.04
68230;BME280;55048;52.220;5.160;2022-10-31T04:42:47;101932.63;;;12.38;80.14
68230;BME280;55048;52.220;5.160;2022-10-31T04:45:12;101950.03;;;12.40;80.24
68230;BME280;55048;52.220;5.160;2022-10-31T04:47:38;101946.19;;;12.36;80.21
68230;BME280;55048;52.220;5.160;2022-10-31T04:50:05;101934.75;;;12.29;80.06
68230;BME280;55048;52.220;5.160;2022-10-31T04:52:32;101902.72;;;12.11;80.06
68230;BME280;55048;52.220;5.160;2022-10-31T04:55:03;101935.13;;;12.33;80.31
68230;BME280;55048;52.220;5.160;2022-10-31T04:57:47;101953.72;;;12.39;80.12
68230;BME280;55048;52.220;5.160;2022-10-31T05:00:15;101928.47;;;12.23;80.15
68230;BME280;55048;52.220;5.160;2022-10-31T05:02:43;101914.97;;;12.18;79.94
68230;BME280;55048;52.220;5.160;2022-10-31T05:05:09;101896.66;;;12.04;80.04
68230;BME280;55048;52.220;5.160;2022-10-31T05:07:38;101942.09;;;12.34;80.14
68230;BME280;55048;52.220;5.160;2022-10-31T05:10:04;101933.34;;;12.27;80.21
68230;BME280;55048;52.220;5.160;2022-10-31T05:12:30;101894.41;;;12.00;80.09
68230;BME280;55048;52.220;5.160;2022-10-31T05:15:28;101925.41;;;12.20;79.97
68230;BME280;55048;52.220;5.160;2022-10-31T05:18:19;101934.44;;;12.19;79.88
68230;BME280;55048;52.220;5.160;2022-10-31T05:21:03;101935.69;;;12.16;79.83
68230;BME280;55048;52.220;5.160;2022-10-31T05:23:43;101944.88;;;12.20;79.84
68230;BME280;55048;52.220;5.160;2022-10-31T05:26:08;101927.34;;;12.13;79.97
68230;BME280;55048;52.220;5.160;2022-10-31T05:28:34;101918.34;;;12.07;79.99
68230;BME280;55048;52.220;5.160;2022-10-31T05:31:00;101897.59;;;11.91;80.10
68230;BME280;55048;52.220;5.160;2022-10-31T05:33:25;101913.66;;;12.03;80.08
68230;BME280;55048;52.220;5.160;2022-10-31T05:36:09;101922.28;;;12.05;80.41
68230;BME280;55048;52.220;5.160;2022-10-31T05:38:44;101887.34;;;11.88;80.42
68230;BME280;55048;52.220;5.160;2022-10-31T05:41:22;101898.13;;;11.99;80.15
68230;BME280;55048;52.220;5.160;2022-10-31T05:43:47;101904.50;;;11.98;80.41
68230;BME280;55048;52.220;5.160;2022-10-31T05:46:14;101916.28;;;12.09;80.08
68230;BME280;55048;52.220;5.160;2022-10-31T05:49:06;101906.56;;;11.96;80.62
68230;BME280;55048;52.220;5.160;2022-10-31T05:51:58;101911.63;;;12.05;80.55
68230;BME280;55048;52.220;5.160;2022-10-31T05:54:32;101913.47;;;12.04;80.50
68230;BME280;55048;52.220;5.160;2022-10-31T05:56:57;101902.41;;;12.00;80.43
68230;BME280;55048;52.220;5.160;2022-10-31T05:59:26;101908.34;;;12.03;80.35
68230;BME280;55048;52.220;5.160;2022-10-31T06:01:52;101903.06;;;11.96;80.48
68230;BME280;55048;52.220;5.160;2022-10-31T06:04:36;101874.06;;;11.81;80.28
68230;BME280;55048;52.220;5.160;2022-10-31T06:07:02;101905.50;;;11.97;80.50
68230;BME280;55048;52.220;5.160;2022-10-31T06:09:27;101898.97;;;11.93;80.59
68230;BME280;55048;52.220;5.160;2022-10-31T06:11:54;101902.25;;;11.95;80.80
68230;BME280;55048;52.220;5.160;2022-10-31T06:14:45;101873.91;;;11.76;80.49
68230;BME280;55048;52.220;5.160;2022-10-31T06:17:11;101885.78;;;11.80;80.63
68230;BME280;55048;52.220;5.160;2022-10-31T06:20:02;101907.44;;;11.90;80.56
68230;BME280;55048;52.220;5.160;2022-10-31T06:22:30;101906.41;;;11.91;80.76
68230;BME280;55048;52.220;5.160;2022-10-31T06:24:55;101879.75;;;11.66;80.86
68230;BME280;55048;52.220;5.160;2022-10-31T06:27:27;101908.47;;;11.89;80.90
68230;BME280;55048;52.220;5.160;2022-10-31T06:29:53;101909.13;;;11.85;80.91
68230;BME280;55048;52.220;5.160;2022-10-31T06:32:36;101904.16;;;11.88;80.90
68230;BME280;55048;52.220;5.160;2022-10-31T06:35:02;101896.47;;;11.73;80.97
68230;BME280;55048;52.220;5.160;2022-10-31T06:37:28;101920.16;;;11.88;81.18
68230;BME280;55048;52.220;5.160;2022-10-31T06:40:00;101912.63;;;11.79;81.30
68230;BME280;55048;52.220;5.160;2022-10-31T06:42:25;101911.00;;;11.78;81.38
68230;BME280;55048;52.220;5.160;2022-10-31T06:44:51;101893.88;;;11.67;81.35
68230;BME280;55048;52.220;5.160;2022-10-31T06:47:35;101920.59;;;11.85;81.50
68230;BME280;55048;52.220;5.160;2022-10-31T06:50:05;101913.44;;;11.79;81.52
68230;BME280;55048;52.220;5.160;2022-10-31T06:52:30;101925.88;;;11.92;81.59
68230;BME280;55048;52.220;5.160;2022-10-31T06:54:56;101879.94;;;11.65;81.45
68230;BME280;55048;52.220;5.160;2022-10-31T06:57:22;101927.50;;;11.93;81.63
68230;BME280;55048;52.220;5.160;2022-10-31T06:59:48;101921.59;;;11.91;81.68
68230;BME280;55048;52.220;5.160;2022-10-31T07:02:30;101926.25;;;11.95;81.75
68230;BME280;55048;52.220;5.160;2022-10-31T07:04:56;101897.09;;;11.75;81.80
68230;BME280;55048;52.220;5.160;2022-10-31T07:07:22;101934.03;;;11.97;81.81
68230;BME280;55048;52.220;5.160;2022-10-31T07:09:49;101932.78;;;11.99;81.92
68230;BME280;55048;52.220;5.160;2022-10-31T07:12:17;101923.81;;;11.94;81.98
68230;BME280;55048;52.220;5.160;2022-10-31T07:14:52;101927.22;;;12.01;81.89
68230;BME280;55048;52.220;5.160;2022-10-31T07:17:18;101927.84;;;12.03;82.00
68230;BME280;55048;52.220;5.160;2022-10-31T07:19:44;101927.47;;;11.99;81.90
68230;BME280;55048;52.220;5.160;2022-10-31T07:22:11;101907.22;;;11.92;82.00
68230;BME280;55048;52.220;5.160;2022-10-31T07:24:40;101912.31;;;11.93;82.27
68230;BME280;55048;52.220;5.160;2022-10-31T07:27:42;101940.88;;;12.11;82.09
68230;BME280;55048;52.220;5.160;2022-10-31T07:30:10;101944.50;;;12.17;82.29
68230;BME280;55048;52.220;5.160;2022-10-31T07:32:45;101948.59;;;12.19;82.11
68230;BME280;55048;52.220;5.160;2022-10-31T07:35:15;101931.81;;;12.12;81.94
68230;BME280;55048;52.220;5.160;2022-10-31T07:38:09;101940.16;;;12.22;82.22
68230;BME280;55048;52.220;5.160;2022-10-31T07:40:35;101926.03;;;12.22;82.11
68230;BME280;55048;52.220;5.160;2022-10-31T07:43:01;101942.91;;;12.34;82.21
68230;BME280;55048;52.220;5.160;2022-10-31T07:45:54;101941.06;;;12.35;81.78
68230;BME280;55048;52.220;5.160;2022-10-31T07:48:39;101936.09;;;12.38;82.20
68230;BME280;55048;52.220;5.160;2022-10-31T07:51:23;101927.94;;;12.33;82.29
68230;BME280;55048;52.220;5.160;2022-10-31T07:54:09;101939.28;;;12.47;82.34
68230;BME280;55048;52.220;5.160;2022-10-31T07:56:34;101941.44;;;12.57;82.44
68230;BME280;55048;52.220;5.160;2022-10-31T07:59:00;101926.69;;;12.54;82.53
68230;BME280;55048;52.220;5.160;2022-10-31T08:01:25;101949.88;;;12.72;82.57
68230;BME280;55048;52.220;5.160;2022-10-31T08:04:11;101935.81;;;12.65;82.81
68230;BME280;55048;52.220;5.160;2022-10-31T08:07:14;101931.81;;;12.56;84.84
68230;BME280;55048;52.220;5.160;2022-10-31T08:09:44;101963.03;;;12.73;85.25
68230;BME280;55048;52.220;5.160;2022-10-31T08:12:20;101957.22;;;12.76;83.65
68230;BME280;55048;52.220;5.160;2022-10-31T08:14:45;101900.16;;;12.41;83.98
68230;BME280;55048;52.220;5.160;2022-10-31T08:17:12;101905.41;;;12.47;83.75
68230;BME280;55048;52.220;5.160;2022-10-31T08:19:50;101949.00;;;12.78;84.05
68230;BME280;55048;52.220;5.160;2022-10-31T08:22:18;101953.34;;;12.91;83.87
68230;BME280;55048;52.220;5.160;2022-10-31T08:24:43;101939.72;;;12.81;84.04
68230;BME280;55048;52.220;5.160;2022-10-31T08:27:09;101947.50;;;12.82;84.15
68230;BME280;55048;52.220;5.160;2022-10-31T08:29:36;101940.53;;;12.81;84.89
68230;BME280;55048;52.220;5.160;2022-10-31T08:32:03;101951.06;;;12.94;84.51
68230;BME280;55048;52.220;5.160;2022-10-31T08:35:07;101922.09;;;12.80;84.46
68230;BME280;55048;52.220;5.160;2022-10-31T08:37:53;101876.50;;;12.63;84.22
68230;BME280;55048;52.220;5.160;2022-10-31T08:40:19;101930.78;;;13.05;84.21
68230;BME280;55048;52.220;5.160;2022-10-31T08:42:44;101929.53;;;13.08;84.21
68230;BME280;55048;52.220;5.160;2022-10-31T08:45:10;101938.03;;;13.16;84.11
68230;BME280;55048;52.220;5.160;2022-10-31T08:47:36;101936.56;;;13.20;84.53
68230;BME280;55048;52.220;5.160;2022-10-31T08:50:01;101932.84;;;13.21;84.57
68230;BME280;55048;52.220;5.160;2022-10-31T08:52:28;101931.56;;;13.24;84.58
68230;BME280;55048;52.220;5.160;2022-10-31T08:54:58;101935.72;;;13.38;85.03
68230;BME280;55048;52.220;5.160;2022-10-31T08:57:42;101932.50;;;13.48;85.32
68230;BME280;55048;52.220;5.160;2022-10-31T09:00:10;101887.69;;;13.32;84.61
68230;BME280;55048;52.220;5.160;2022-10-31T09:02:59;101922.25;;;13.57;84.93
68230;BME280;55048;52.220;5.160;2022-10-31T09:05:26;101914.59;;;13.60;84.52
68230;BME280;55048;52.220;5.160;2022-10-31T09:07:55;101872.28;;;13.34;85.05
68230;BME280;55048;52.220;5.160;2022-10-31T09:10:24;101922.03;;;13.70;85.40
68230;BME280;55048;52.220;5.160;2022-10-31T09:12:58;101891.47;;;13.54;85.42
68230;BME280;55048;52.220;5.160;2022-10-31T09:15:48;101888.00;;;13.65;85.28
68230;BME280;55048;52.220;5.160;2022-10-31T09:18:23;101925.69;;;13.99;85.51
68230;BME280;55048;52.220;5.160;2022-10-31T09:20:53;101888.13;;;13.82;85.52
68230;BME280;55048;52.220;5.160;2022-10-31T09:23:22;101884.41;;;13.95;85.53
68230;BME280;55048;52.220;5.160;2022-10-31T09:25:49;101862.78;;;13.96;85.49
68230;BME280;55048;52.220;5.160;2022-10-31T09:28:29;101911.03;;;14.25;85.60
68230;BME280;55048;52.220;5.160;2022-10-31T09:30:59;101904.16;;;14.29;85.69
68230;BME280;55048;52.220;5.160;2022-10-31T09:33:44;101862.75;;;14.08;85.68
68230;BME280;55048;52.220;5.160;2022-10-31T09:36:30;101877.75;;;14.21;85.23
68230;BME280;55048;52.220;5.160;2022-10-31T09:38:56;101883.19;;;14.26;85.27
68230;BME280;55048;52.220;5.160;2022-10-31T09:41:51;101887.50;;;14.39;85.66
68230;BME280;55048;52.220;5.160;2022-10-31T09:44:33;101885.72;;;14.44;85.34
68230;BME280;55048;52.220;5.160;2022-10-31T09:49:47;101888.31;;;14.51;86.03
68230;BME280;55048;52.220;5.160;2022-10-31T09:52:21;101870.06;;;14.48;85.78
68230;BME280;55048;52.220;5.160;2022-10-31T09:54:56;101892.47;;;14.70;85.52
68230;BME280;55048;52.220;5.160;2022-10-31T09:57:34;101876.94;;;14.72;85.59
68230;BME280;55048;52.220;5.160;2022-10-31T10:00:04;101868.09;;;14.72;85.71
68230;BME280;55048;52.220;5.160;2022-10-31T10:05:34;101836.66;;;14.79;85.71
68230;BME280;55048;52.220;5.160;2022-10-31T10:08:09;101866.56;;;15.04;85.83
68230;BME280;55048;52.220;5.160;2022-10-31T10:10:49;101865.03;;;15.09;85.64
68230;BME280;55048;52.220;5.160;2022-10-31T10:13:37;101858.16;;;15.13;85.63
68230;BME280;55048;52.220;5.160;2022-10-31T10:19:04;101848.06;;;15.20;85.38
68230;BME280;55048;52.220;5.160;2022-10-31T10:24:49;101856.53;;;15.28;85.40
68230;BME280;55048;52.220;5.160;2022-10-31T10:27:41;101856.31;;;15.30;85.55
68230;BME280;55048;52.220;5.160;2022-10-31T10:30:15;101849.97;;;15.36;85.52
68230;BME280;55048;52.220;5.160;2022-10-31T10:32:53;101819.44;;;15.20;85.26
68230;BME280;55048;52.220;5.160;2022-10-31T10:35:27;101848.84;;;15.49;85.48
68230;BME280;55048;52.220;5.160;2022-10-31T10:38:24;101840.63;;;15.55;85.07
68230;BME280;55048;52.220;5.160;2022-10-31T10:40:52;101810.38;;;15.43;84.88
68230;BME280;55048;52.220;5.160;2022-10-31T10:43:36;101824.03;;;15.59;84.87
68230;BME280;55048;52.220;5.160;2022-10-31T10:54:46;101817.41;;;16.00;82.98
68230;BME280;55048;52.220;5.160;2022-10-31T11:00:46;101795.25;;;16.10;82.70
68230;BME280;55048;52.220;5.160;2022-10-31T11:03:17;101779.22;;;16.15;82.37
68230;BME280;55048;52.220;5.160;2022-10-31T11:08:35;101742.84;;;16.02;82.35
68230;BME280;55048;52.220;5.160;2022-10-31T11:13:43;101755.94;;;16.20;81.84
68230;BME280;55048;52.220;5.160;2022-10-31T11:16:12;101684.09;;;15.78;81.76
68230;BME280;55048;52.220;5.160;2022-10-31T11:18:43;101749.00;;;16.24;81.69
68230;BME280;55048;52.220;5.160;2022-10-31T11:21:29;101692.88;;;15.96;81.38
68230;BME280;55048;52.220;5.160;2022-10-31T11:24:14;101722.56;;;16.11;81.72
68230;BME280;55048;52.220;5.160;2022-10-31T11:26:42;101721.03;;;16.20;81.57
68230;BME280;55048;52.220;5.160;2022-10-31T11:29:23;101739.38;;;16.28;81.36
68230;BME280;55048;52.220;5.160;2022-10-31T11:31:52;101713.63;;;16.05;81.28
68230;BME280;55048;52.220;5.160;2022-10-31T11:34:34;101747.44;;;16.28;81.14
68230;BME280;55048;52.220;5.160;2022-10-31T11:37:15;101746.09;;;16.31;80.99
68230;BME280;55048;52.220;5.160;2022-10-31T11:39:44;101725.88;;;16.18;81.15
68230;BME280;55048;52.220;5.160;2022-10-31T11:42:11;101749.22;;;16.45;81.40
68230;BME280;55048;52.220;5.160;2022-10-31T11:44:41;101727.50;;;16.46;81.12
68230;BME280;55048;52.220;5.160;2022-10-31T11:47:13;101688.38;;;16.28;80.71
68230;BME280;55048;52.220;5.160;2022-10-31T11:49:41;101729.81;;;16.65;81.03
68230;BME280;55048;52.220;5.160;2022-10-31T11:52:14;101728.47;;;16.67;80.34
68230;BME280;55048;52.220;5.160;2022-10-31T11:57:41;101707.44;;;16.59;80.76
68230;BME280;55048;52.220;5.160;2022-10-31T12:00:21;101704.00;;;16.64;80.34
68230;BME280;55048;52.220;5.160;2022-10-31T12:02:47;101665.78;;;16.51;80.80
68230;BME280;55048;52.220;5.160;2022-10-31T12:05:25;101677.16;;;16.64;80.59
68230;BME280;55048;52.220;5.160;2022-10-31T12:07:54;101659.06;;;16.54;80.75
68230;BME280;55048;52.220;5.160;2022-10-31T12:10:21;101624.53;;;16.36;80.75
68230;BME280;55048;52.220;5.160;2022-10-31T12:12:52;101658.38;;;16.69;80.68
68230;BME280;55048;52.220;5.160;2022-10-31T12:15:33;101658.66;;;16.67;80.47
68230;BME280;55048;52.220;5.160;2022-10-31T12:24:09;101637.38;;;16.61;80.49
68230;BME280;55048;52.220;5.160;2022-10-31T12:26:46;101659.66;;;16.88;80.57
68230;BME280;55048;52.220;5.160;2022-10-31T12:29:26;101630.88;;;16.83;80.37
68230;BME280;55048;52.220;5.160;2022-10-31T12:37:21;101620.78;;;17.06;79.75
68230;BME280;55048;52.220;5.160;2022-10-31T12:40:03;101607.59;;;16.99;80.03
68230;BME280;55048;52.220;5.160;2022-10-31T12:43:22;101608.09;;;16.96;80.66
68230;BME280;55048;52.220;5.160;2022-10-31T12:45:54;101576.91;;;16.90;80.28
68230;BME280;55048;52.220;5.160;2022-10-31T12:48:46;101557.22;;;16.74;80.04
68230;BME280;55048;52.220;5.160;2022-10-31T12:54:09;101591.22;;;17.06;80.67
68230;BME280;55048;52.220;5.160;2022-10-31T12:59:17;101584.00;;;17.12;80.40
68230;BME280;55048;52.220;5.160;2022-10-31T13:01:48;101558.69;;;17.02;80.35
68230;BME280;55048;52.220;5.160;2022-10-31T13:04:21;101512.91;;;16.82;80.09
68230;BME280;55048;52.220;5.160;2022-10-31T13:06:59;101556.59;;;17.15;80.08
68230;BME280;55048;52.220;5.160;2022-10-31T13:09:32;101496.25;;;16.75;79.93
68230;BME280;55048;52.220;5.160;2022-10-31T13:12:04;101553.38;;;17.18;80.32
68230;BME280;55048;52.220;5.160;2022-10-31T13:14:44;101537.75;;;17.09;79.97
68230;BME280;55048;52.220;5.160;2022-10-31T13:17:22;101533.50;;;17.19;80.03
68230;BME280;55048;52.220;5.160;2022-10-31T13:19:51;101510.34;;;17.07;79.69
68230;BME280;55048;52.220;5.160;2022-10-31T13:22:24;101479.38;;;16.90;79.63
68230;BME280;55048;52.220;5.160;2022-10-31T13:27:29;101520.34;;;17.27;79.72
68230;BME280;55048;52.220;5.160;2022-10-31T13:32:45;101470.56;;;17.04;79.76
68230;BME280;55048;52.220;5.160;2022-10-31T13:35:18;101481.31;;;17.15;79.95
68230;BME280;55048;52.220;5.160;2022-10-31T13:37:50;101481.03;;;17.11;79.99
68230;BME280;55048;52.220;5.160;2022-10-31T13:40:24;101489.69;;;17.18;80.10
68230;BME280;55048;52.220;5.160;2022-10-31T13:45:30;101473.25;;;17.09;79.92
68230;BME280;55048;52.220;5.160;2022-10-31T13:50:24;101481.03;;;17.11;79.83
68230;BME280;55048;52.220;5.160;2022-10-31T13:52:50;101449.53;;;16.91;80.03
68230;BME280;55048;52.220;5.160;2022-10-31T13:55:40;101438.00;;;16.91;80.05
68230;BME280;55048;52.220;5.160;2022-10-31T13:58:35;101413.50;;;16.77;80.13
68230;BME280;55048;52.220;5.160;2022-10-31T14:03:41;101407.84;;;16.78;79.75
68230;BME280;55048;52.220;5.160;2022-10-31T14:06:08;101417.78;;;16.78;79.77
68230;BME280;55048;52.220;5.160;2022-10-31T14:08:36;101412.97;;;16.75;79.99
68230;BME280;55048;52.220;5.160;2022-10-31T14:11:03;101433.44;;;16.91;79.74
68230;BME280;55048;52.220;5.160;2022-10-31T14:13:37;101432.63;;;16.91;79.99
68230;BME280;55048;52.220;5.160;2022-10-31T14:16:30;101379.56;;;16.55;80.58
68230;BME280;55048;52.220;5.160;2022-10-31T14:19:05;101407.53;;;16.65;80.21
68230;BME280;55048;52.220;5.160;2022-10-31T14:21:43;101363.19;;;16.57;80.29
68230;BME280;55048;52.220;5.160;2022-10-31T14:27:03;101385.00;;;16.71;80.09
68230;BME280;55048;52.220;5.160;2022-10-31T14:29:31;101321.78;;;16.43;80.19
68230;BME280;55048;52.220;5.160;2022-10-31T14:32:20;101341.38;;;16.43;80.93
68230;BME280;55048;52.220;5.160;2022-10-31T14:43:07;101304.56;;;16.23;81.23
68230;BME280;55048;52.220;5.160;2022-10-31T14:51:22;101345.19;;;16.57;81.14
68230;BME280;55048;52.220;5.160;2022-10-31T14:53:50;101326.69;;;16.56;80.72
68230;BME280;55048;52.220;5.160;2022-10-31T14:56:25;101370.53;;;16.82;81.05
68230;BME280;55048;52.220;5.160;2022-10-31T14:58:52;101358.47;;;16.79;81.00
68230;BME280;55048;52.220;5.160;2022-10-31T15:01:27;101349.31;;;16.75;81.08
68230;BME280;55048;52.220;5.160;2022-10-31T15:04:17;101352.00;;;16.75;81.71
68230;BME280;55048;52.220;5.160;2022-10-31T15:06:48;101336.97;;;16.74;81.04
68230;BME280;55048;52.220;5.160;2022-10-31T15:09:26;101351.44;;;16.78;80.92
68230;BME280;55048;52.220;5.160;2022-10-31T15:11:52;101342.34;;;16.79;80.86